createdAt,value
2018-06-16T00:02:05.406Z,1.90
2018-06-16T00:04:43.826Z,1.07
2018-06-16T00:07:28.794Z,1.20
2018-06-16T00:10:08.849Z,1.13
2018-06-16T00:12:46.147Z,1.33
2018-06-16T00:15:23.062Z,3.13
2018-06-16T00:18:05.268Z,0.80
2018-06-16T00:23:47.815Z,1.80
2018-06-16T00:29:29.749Z,1.40
2018-06-16T00:32:15.157Z,2.67
2018-06-16T00:34:59.477Z,1.87
2018-06-16T00:40:38.352Z,2.57
2018-06-16T00:43:26.250Z,2.77
2018-06-16T00:46:04.958Z,1.37
2018-06-16T00:48:43.189Z,1.23
2018-06-16T00:51:21.152Z,1.30
2018-06-16T00:53:57.793Z,2.00
2018-06-16T00:56:37.850Z,1.87
2018-06-16T00:59:28.712Z,1.47
2018-06-16T01:02:23.027Z,1.83
2018-06-16T01:05:11.486Z,1.30
2018-06-16T01:07:46.624Z,1.27
2018-06-16T01:10:47.535Z,2.03
2018-06-16T01:13:30.986Z,1.67
2018-06-16T01:16:12.397Z,1.33
2018-06-16T01:18:49.774Z,1.37
2018-06-16T01:21:26.971Z,1.53
2018-06-16T01:24:07.525Z,1.55
2018-06-16T01:26:50.862Z,1.40
2018-06-16T01:29:36.616Z,1.57
2018-06-16T01:32:17.413Z,1.30
2018-06-16T01:34:56.926Z,1.30
2018-06-16T01:37:33.530Z,1.00
2018-06-16T01:40:24.332Z,3.73
2018-06-16T01:43:10.743Z,2.50
2018-06-16T01:46:10.961Z,1.10
2018-06-16T01:49:16.203Z,2.93
2018-06-16T01:52:01.590Z,2.13
2018-06-16T01:54:44.476Z,1.03
2018-06-16T01:57:20.150Z,1.97
2018-06-16T01:59:58.131Z,2.07
2018-06-16T02:02:40.153Z,2.13
2018-06-16T02:05:22.767Z,1.73
2018-06-16T02:08:09.721Z,2.60
2018-06-16T02:10:48.300Z,1.00
2018-06-16T02:13:27.638Z,3.13
2018-06-16T02:19:37.631Z,1.57
2018-06-16T02:25:03.148Z,2.33
2018-06-16T02:31:28.900Z,2.13
2018-06-16T02:36:52.989Z,2.50
2018-06-16T02:39:29.804Z,1.90
2018-06-16T02:42:11.870Z,2.70
2018-06-16T02:44:52.945Z,3.80
2018-06-16T02:51:46.143Z,1.80
2018-06-16T02:54:23.939Z,2.80
2018-06-16T03:00:01.161Z,2.87
2018-06-16T03:05:37.937Z,1.87
2018-06-16T03:08:15.969Z,3.43
2018-06-16T03:10:55.890Z,2.33
2018-06-16T03:13:33.322Z,1.70
2018-06-16T03:16:06.680Z,2.37
2018-06-16T03:21:57.518Z,3.27
2018-06-16T03:24:30.568Z,1.60
2018-06-16T03:27:14.026Z,1.40
2018-06-16T03:30:00.755Z,1.93
2018-06-16T03:32:39.975Z,2.00
2018-06-16T03:35:21.971Z,1.50
2018-06-16T03:38:04.215Z,1.73
2018-06-16T03:40:45.966Z,2.40
2018-06-16T03:43:45.068Z,1.60
2018-06-16T03:46:23.397Z,1.40
2018-06-16T03:48:59.083Z,2.27
2018-06-16T03:51:35.304Z,1.50
2018-06-16T03:54:16.162Z,1.87
2018-06-16T03:57:10.776Z,1.97
2018-06-16T04:02:46.840Z,3.00
2018-06-16T04:05:39.175Z,4.90
2018-06-16T04:25:18.300Z,1.70
2018-06-16T04:27:59.096Z,2.30
2018-06-16T04:30:36.793Z,1.63
2018-06-16T04:36:11.365Z,1.80
2018-06-16T04:45:00.152Z,3.37
2018-06-16T04:47:45.769Z,3.13
2018-06-16T04:50:29.058Z,2.17
2018-06-16T04:53:20.161Z,2.03
2018-06-16T04:56:04.312Z,2.30
2018-06-16T04:58:43.487Z,3.63
2018-06-16T05:01:30.153Z,3.80
2018-06-16T05:06:58.149Z,2.43
2018-06-16T05:09:39.319Z,3.20
2018-06-16T05:12:20.704Z,3.23
2018-06-16T05:15:12.754Z,3.53
2018-06-16T05:17:54.647Z,6.40
2018-06-16T05:20:31.627Z,2.57
2018-06-16T05:23:04.350Z,3.93
2018-06-16T05:31:35.935Z,2.90
2018-06-16T05:34:19.941Z,2.93
2018-06-16T05:37:11.052Z,3.13
2018-06-16T05:39:53.720Z,3.40
2018-06-16T05:42:33.312Z,2.97
2018-06-16T05:45:10.497Z,2.93
2018-06-16T05:47:49.630Z,2.80
2018-06-16T05:50:33.776Z,4.57
2018-06-16T05:53:10.860Z,2.83
2018-06-16T05:55:49.750Z,5.15
2018-06-16T05:58:28.000Z,5.33
2018-06-16T06:01:09.991Z,3.80
2018-06-16T06:03:54.969Z,3.92
2018-06-16T06:06:32.168Z,3.37
2018-06-16T06:09:23.831Z,3.50
2018-06-16T06:12:06.075Z,3.67
2018-06-16T06:14:49.002Z,3.98
2018-06-16T06:17:25.976Z,3.50
2018-06-16T06:20:06.952Z,3.40
2018-06-16T06:22:50.283Z,3.22
2018-06-16T06:25:28.912Z,3.77
2018-06-16T06:28:03.662Z,4.05
2018-06-16T06:30:47.103Z,3.50
2018-06-16T06:33:26.743Z,3.85
2018-06-16T06:36:11.160Z,4.45
2018-06-16T06:38:58.176Z,5.90
2018-06-16T06:41:38.035Z,5.03
2018-06-16T06:47:11.491Z,4.37
2018-06-16T06:49:57.846Z,4.47
2018-06-16T06:52:34.450Z,4.75
2018-06-16T06:58:03.025Z,3.90
2018-06-16T07:00:43.241Z,4.37
2018-06-16T07:03:40.964Z,4.30
2018-06-16T07:06:29.459Z,4.45
2018-06-16T07:09:14.166Z,4.67
2018-06-16T07:12:00.713Z,4.42
2018-06-16T07:14:40.105Z,4.20
2018-06-16T07:20:22.739Z,4.35
2018-06-16T07:22:57.777Z,4.33
2018-06-16T07:28:45.944Z,5.05
2018-06-16T07:31:29.785Z,5.20
2018-06-16T07:34:12.117Z,5.08
2018-06-16T07:36:49.615Z,4.47
2018-06-16T07:39:31.477Z,4.65
2018-06-16T07:42:14.605Z,4.37
2018-06-16T07:47:57.044Z,4.40
2018-06-16T07:50:39.030Z,5.05
2018-06-16T07:53:15.810Z,4.45
2018-06-16T07:56:06.306Z,5.67
2018-06-16T08:01:45.663Z,4.97
2018-06-16T08:04:32.682Z,3.87
2018-06-16T08:07:17.853Z,4.33
2018-06-16T08:10:01.321Z,3.92
2018-06-16T08:12:38.995Z,3.90
2018-06-16T08:15:26.514Z,4.83
2018-06-16T08:18:09.311Z,3.83
2018-06-16T08:20:52.970Z,3.75
2018-06-16T08:24:13.653Z,3.95
2018-06-16T08:27:18.922Z,4.08
2018-06-16T08:33:01.553Z,3.80
2018-06-16T08:35:49.796Z,6.35
2018-06-16T08:44:27.230Z,3.65
2018-06-16T08:47:21.955Z,4.00
2018-06-16T08:50:04.133Z,4.10
2018-06-16T08:52:44.497Z,4.08
2018-06-16T08:55:29.012Z,4.00
2018-06-16T08:58:14.047Z,3.80
2018-06-16T09:01:00.130Z,3.98
2018-06-16T09:03:43.958Z,3.90
2018-06-16T09:06:24.177Z,3.80
2018-06-16T09:09:07.487Z,3.85
2018-06-16T09:11:52.733Z,3.20
2018-06-16T09:14:34.129Z,3.50
2018-06-16T09:17:26.910Z,3.72
2018-06-16T09:20:09.229Z,3.58
2018-06-16T09:22:46.856Z,3.72
2018-06-16T09:25:41.866Z,3.60
2018-06-16T09:31:19.328Z,4.50
2018-06-16T09:33:58.029Z,4.10
2018-06-16T09:36:39.519Z,3.85
2018-06-16T09:45:33.581Z,3.65
2018-06-16T09:48:14.404Z,3.58
2018-06-16T09:54:56.716Z,3.52
2018-06-16T09:57:50.716Z,3.92
2018-06-16T10:03:22.241Z,3.67
2018-06-16T10:08:54.315Z,4.17
2018-06-16T10:14:36.377Z,3.75
2018-06-16T10:17:29.678Z,3.60
2018-06-16T10:20:24.758Z,4.00
2018-06-16T10:31:56.061Z,2.80
2018-06-16T10:37:41.502Z,3.33
2018-06-16T10:40:18.963Z,3.55
2018-06-16T10:43:24.111Z,3.42
2018-06-16T10:49:00.284Z,3.87
2018-06-16T10:51:38.201Z,4.08
2018-06-16T10:54:27.347Z,4.33
2018-06-16T10:57:11.298Z,4.42
2018-06-16T10:59:55.882Z,4.28
2018-06-16T11:02:37.473Z,4.67
2018-06-16T11:08:08.458Z,4.25
2018-06-16T11:10:54.700Z,4.20
2018-06-16T11:13:48.474Z,4.10
2018-06-16T11:16:43.802Z,3.83
2018-06-16T11:19:32.309Z,4.33
2018-06-16T11:22:11.759Z,3.58
2018-06-16T11:30:37.129Z,3.72
2018-06-16T11:33:18.028Z,3.92
2018-06-16T11:36:03.695Z,4.70
2018-06-16T11:38:44.991Z,4.20
2018-06-16T11:44:14.405Z,3.98
2018-06-16T11:46:53.223Z,4.62
2018-06-16T11:49:37.882Z,4.00
2018-06-16T11:52:51.293Z,4.00
2018-06-16T11:55:39.113Z,4.25
2018-06-16T11:58:20.574Z,4.40
2018-06-16T12:01:11.192Z,3.50
2018-06-16T12:03:51.197Z,4.17
2018-06-16T12:06:36.364Z,5.03
2018-06-16T12:12:32.629Z,4.45
2018-06-16T12:17:55.211Z,4.17
2018-06-16T12:20:36.362Z,4.53
2018-06-16T12:23:18.360Z,4.72
2018-06-16T12:25:59.076Z,4.30
2018-06-16T12:31:47.910Z,3.22
2018-06-16T12:34:29.806Z,4.00
2018-06-16T12:40:05.787Z,4.50
2018-06-16T12:42:44.944Z,4.75
2018-06-16T12:45:29.473Z,4.28
2018-06-16T12:48:14.344Z,4.40
2018-06-16T12:50:56.245Z,5.37
2018-06-16T12:53:42.076Z,4.83
2018-06-16T12:56:28.032Z,5.28
2018-06-16T12:59:02.254Z,4.20
2018-06-16T13:01:43.279Z,5.25
2018-06-16T13:04:26.336Z,4.17
2018-06-16T13:07:05.263Z,4.15
2018-06-16T13:10:04.032Z,3.70
2018-06-16T13:12:53.240Z,4.05
2018-06-16T13:18:42.521Z,4.28
2018-06-16T13:21:26.971Z,3.30
2018-06-16T13:24:07.331Z,3.52
2018-06-16T13:36:01.952Z,3.77
2018-06-16T13:38:44.295Z,3.87
2018-06-16T13:44:19.868Z,3.58
2018-06-16T13:47:00.442Z,3.72
2018-06-16T13:49:36.402Z,3.52
2018-06-16T13:52:23.639Z,4.25
2018-06-16T13:55:05.099Z,4.42
2018-06-16T14:00:57.531Z,4.55
2018-06-16T14:06:39.685Z,4.28
2018-06-16T14:09:24.351Z,3.70
2018-06-16T14:12:05.840Z,3.87
2018-06-16T14:15:08.397Z,3.90
2018-06-16T14:17:56.047Z,4.40
2018-06-16T14:20:51.275Z,3.80
2018-06-16T14:23:33.977Z,4.10
2018-06-16T14:26:18.161Z,3.87
2018-06-16T14:28:58.935Z,3.77
2018-06-16T14:31:36.553Z,3.92
2018-06-16T14:34:11.830Z,3.10
2018-06-16T14:36:53.450Z,3.02
2018-06-16T14:39:38.389Z,2.72
2018-06-16T14:42:19.175Z,3.70
2018-06-16T14:45:22.169Z,3.42
2018-06-16T14:48:07.043Z,3.02
2018-06-16T14:50:52.856Z,2.40
2018-06-16T14:53:29.032Z,2.45
2018-06-16T14:56:13.907Z,3.55
2018-06-16T15:01:51.848Z,2.50
2018-06-16T15:04:29.909Z,2.70
2018-06-16T15:07:14.012Z,2.65
2018-06-16T15:09:50.525Z,3.05
2018-06-16T15:12:31.257Z,2.65
2018-06-16T15:15:20.127Z,3.00
2018-06-16T15:18:11.024Z,4.10
2018-06-16T15:21:10.951Z,3.15
2018-06-16T15:23:54.869Z,3.08
2018-06-16T15:26:33.190Z,2.83
2018-06-16T15:38:30.213Z,2.72
2018-06-16T15:41:12.279Z,2.90
2018-06-16T15:43:53.800Z,3.95
2018-06-16T15:46:36.472Z,3.33
2018-06-16T15:49:17.898Z,3.25
2018-06-16T15:51:57.547Z,3.50
2018-06-16T15:54:42.753Z,3.00
2018-06-16T15:57:33.831Z,5.00
2018-06-16T16:00:25.365Z,2.37
2018-06-16T16:03:19.641Z,2.75
2018-06-16T16:05:58.195Z,2.95
2018-06-16T16:08:43.449Z,2.87
2018-06-16T16:11:29.122Z,3.77
2018-06-16T16:14:09.071Z,3.27
2018-06-16T16:16:58.841Z,2.92
2018-06-16T16:19:48.235Z,3.05
2018-06-16T16:22:36.171Z,2.80
2018-06-16T16:25:31.625Z,2.65
2018-06-16T16:28:11.387Z,3.15
2018-06-16T16:33:37.375Z,3.12
2018-06-16T16:39:08.225Z,4.17
2018-06-16T16:44:54.591Z,3.05
2018-06-16T16:47:36.679Z,3.05
2018-06-16T16:50:17.630Z,3.12
2018-06-16T16:55:58.682Z,2.77
2018-06-16T16:58:51.262Z,3.87
2018-06-16T17:01:35.018Z,2.90
2018-06-16T17:04:15.585Z,2.92
2018-06-16T17:07:02.141Z,3.98
2018-06-16T17:09:44.089Z,6.03
2018-06-16T17:15:19.065Z,6.28
2018-06-16T17:18:09.694Z,6.60
2018-06-16T17:21:17.852Z,7.22
2018-06-16T17:26:49.288Z,7.47
2018-06-16T17:29:28.941Z,8.45
2018-06-16T17:32:15.366Z,7.50
2018-06-16T17:37:52.393Z,5.92
2018-06-16T17:40:43.996Z,6.05
2018-06-16T17:43:31.272Z,5.50
2018-06-16T17:46:15.163Z,5.75
2018-06-16T17:51:37.418Z,5.40
2018-06-16T17:54:19.415Z,4.85
2018-06-16T17:57:06.967Z,5.30
2018-06-16T17:59:53.795Z,5.72
2018-06-16T18:02:37.196Z,6.67
2018-06-16T18:05:17.084Z,7.33
2018-06-16T18:08:25.970Z,10.08
2018-06-16T18:11:03.985Z,7.83
2018-06-16T18:17:01.716Z,7.30
2018-06-16T18:19:39.084Z,8.13
2018-06-16T18:22:20.470Z,8.00
2018-06-16T18:24:58.618Z,7.92
2018-06-16T18:27:42.838Z,6.80
2018-06-16T18:30:28.578Z,7.83
2018-06-16T18:33:16.687Z,7.00
2018-06-16T18:35:55.270Z,7.33
2018-06-16T18:38:35.005Z,7.47
2018-06-16T18:47:01.415Z,7.30
2018-06-16T18:49:41.953Z,6.65
2018-06-16T18:52:28.415Z,8.33
2018-06-16T18:58:05.845Z,7.60
2018-06-16T19:03:49.203Z,8.18
2018-06-16T19:06:28.647Z,7.20
2018-06-16T19:12:06.029Z,9.80
2018-06-16T19:14:48.416Z,7.28
2018-06-16T19:17:39.132Z,9.55
2018-06-16T19:20:24.440Z,7.67
2018-06-16T20:48:21.199Z,10.85
2018-06-16T20:50:54.988Z,8.88
2018-06-16T20:53:34.435Z,10.43
2018-06-16T20:56:37.511Z,9.37
2018-06-16T20:59:18.607Z,11.70
2018-06-16T21:01:59.666Z,9.67
2018-06-16T21:04:41.254Z,11.13
2018-06-16T21:07:24.123Z,10.50
2018-06-16T21:10:11.412Z,10.37
2018-06-16T21:12:52.248Z,12.53
2018-06-16T21:15:35.671Z,12.57
2018-06-16T21:18:19.869Z,14.05
2018-06-16T21:20:58.181Z,14.45
2018-06-16T21:23:39.280Z,10.43
2018-06-16T21:26:22.469Z,14.43
2018-06-16T21:29:04.270Z,11.80
2018-06-16T21:31:52.208Z,14.10
2018-06-16T21:34:41.491Z,13.73
2018-06-16T21:37:23.688Z,13.90
2018-06-16T21:40:06.926Z,10.83
2018-06-16T21:42:48.901Z,10.10
2018-06-16T21:45:30.538Z,10.43
2018-06-16T21:48:29.483Z,11.28
2018-06-16T21:51:15.069Z,12.37
2018-06-16T21:53:54.313Z,11.73
2018-06-16T21:56:44.340Z,11.40
2018-06-16T21:59:34.517Z,13.13
2018-06-16T22:02:17.940Z,12.73
2018-06-16T22:05:01.402Z,12.30
2018-06-16T22:07:43.040Z,14.95
2018-06-16T22:10:29.309Z,13.50
2018-06-16T22:15:53.136Z,27.80
2018-06-16T22:18:51.340Z,24.12
2018-06-16T22:21:30.138Z,16.48
2018-06-16T22:24:03.937Z,11.97
2018-06-16T22:26:42.688Z,12.37
2018-06-16T22:29:31.207Z,13.15
2018-06-16T22:32:16.588Z,15.53
2018-06-16T22:38:31.411Z,14.95
2018-06-16T22:41:18.163Z,15.68
2018-06-16T22:44:00.048Z,17.07
2018-06-16T22:46:45.474Z,19.13
2018-06-16T22:49:27.272Z,19.40
2018-06-16T22:52:05.165Z,22.43
2018-06-16T22:54:50.443Z,20.45
2018-06-16T22:57:40.401Z,19.40
2018-06-16T23:03:22.755Z,24.87
2018-06-16T23:06:00.959Z,22.43
2018-06-16T23:08:37.431Z,25.50
2018-06-16T23:11:19.938Z,27.40
2018-06-16T23:13:59.486Z,27.63
2018-06-16T23:16:39.122Z,22.23
2018-06-16T23:19:21.430Z,23.93
2018-06-16T23:22:11.247Z,32.17
2018-06-16T23:25:14.917Z,27.20
2018-06-16T23:30:44.956Z,29.17
2018-06-16T23:33:28.182Z,30.57
2018-06-16T23:36:12.229Z,33.77
2018-06-16T23:38:54.064Z,31.50
2018-06-16T23:41:37.966Z,31.93
2018-06-16T23:44:20.170Z,30.70
2018-06-16T23:46:58.489Z,36.13
2018-06-16T23:49:34.056Z,33.97
2018-06-16T23:52:46.954Z,35.00
2018-06-16T23:58:32.382Z,38.50
